sensor_id;sensor_type;location;lat;lon;timestamp;P1;durP1;ratioP1;P2;durP2;ratioP2
10511;SDS011;5304;48.604;2.096;2024-03-02T05:16:56;3.50;;;1.03;;
10511;SDS011;5304;48.604;2.096;2024-03-02T05:19:41;6.77;;;1.07;;
10511;SDS011;5304;48.604;2.096;2024-03-02T05:22:25;7.07;;;1.40;;
10511;SDS011;5304;48.604;2.096;2024-03-02T05:25:09;7.37;;;1.67;;
10511;SDS011;5304;48.604;2.096;2024-03-02T05:27:54;4.47;;;1.30;;
10511;SDS011;5304;48.604;2.096;2024-03-02T05:30:39;2.10;;;1.40;;
10511;SDS011;5304;48.604;2.096;2024-03-02T05:33:26;10.80;;;1.40;;
10511;SDS011;5304;48.604;2.096;2024-03-02T05:36:12;9.07;;;1.43;;
10511;SDS011;5304;48.604;2.096;2024-03-02T05:38:56;5.30;;;1.23;;
10511;SDS011;5304;48.604;2.096;2024-03-02T05:41:40;6.20;;;1.00;;
10511;SDS011;5304;48.604;2.096;2024-03-02T05:44:25;5.33;;;1.50;;
10511;SDS011;5304;48.604;2.096;2024-03-02T05:47:09;7.70;;;1.53;;
10511;SDS011;5304;48.604;2.096;2024-03-02T05:49:53;6.77;;;1.03;;
10511;SDS011;5304;48.604;2.096;2024-03-02T05:52:37;4.43;;;1.10;;
10511;SDS011;5304;48.604;2.096;2024-03-02T05:55:23;4.90;;;1.27;;
10511;SDS011;5304;48.604;2.096;2024-03-02T05:58:08;7.77;;;1.37;;
10511;SDS011;5304;48.604;2.096;2024-03-02T06:01:24;4.57;;;1.53;;
10511;SDS011;5304;48.604;2.096;2024-03-02T06:04:12;7.43;;;1.50;;
10511;SDS011;5304;48.604;2.096;2024-03-02T06:06:57;2.77;;;1.37;;
10511;SDS011;5304;48.604;2.096;2024-03-02T06:09:41;4.77;;;1.30;;
10511;SDS011;5304;48.604;2.096;2024-03-02T06:12:26;3.77;;;1.27;;
10511;SDS011;5304;48.604;2.096;2024-03-02T06:15:10;5.43;;;1.23;;
10511;SDS011;5304;48.604;2.096;2024-03-02T06:17:54;8.93;;;1.40;;
10511;SDS011;5304;48.604;2.096;2024-03-02T06:20:39;2.23;;;1.30;;
10511;SDS011;5304;48.604;2.096;2024-03-02T06:23:23;6.37;;;1.40;;
10511;SDS011;5304;48.604;2.096;2024-03-02T06:26:08;4.97;;;1.03;;
10511;SDS011;5304;48.604;2.096;2024-03-02T06:28:52;4.77;;;1.03;;
10511;SDS011;5304;48.604;2.096;2024-03-02T06:31:37;7.37;;;1.33;;
10511;SDS011;5304;48.604;2.096;2024-03-02T06:34:21;7.23;;;1.40;;
10511;SDS011;5304;48.604;2.096;2024-03-02T06:37:06;10.30;;;1.73;;
10511;SDS011;5304;48.604;2.096;2024-03-02T06:39:50;8.57;;;1.53;;
10511;SDS011;5304;48.604;2.096;2024-03-02T06:42:34;6.33;;;1.50;;
10511;SDS011;5304;48.604;2.096;2024-03-02T06:45:19;5.03;;;1.17;;
10511;SDS011;5304;48.604;2.096;2024-03-02T06:48:03;2.93;;;0.97;;
10511;SDS011;5304;48.604;2.096;2024-03-02T06:50:47;3.70;;;1.30;;
10511;SDS011;5304;48.604;2.096;2024-03-02T06:53:33;3.60;;;1.33;;
10511;SDS011;5304;48.604;2.096;2024-03-02T06:56:17;8.17;;;1.83;;
10511;SDS011;5304;48.604;2.096;2024-03-02T06:59:02;4.50;;;1.23;;
10511;SDS011;5304;48.604;2.096;2024-03-02T07:01:46;4.70;;;1.53;;
10511;SDS011;5304;48.604;2.096;2024-03-02T07:04:30;4.77;;;1.77;;
10511;SDS011;5304;48.604;2.096;2024-03-02T07:07:14;3.30;;;1.33;;
10511;SDS011;5304;48.604;2.096;2024-03-02T07:09:58;5.90;;;1.40;;
10511;SDS011;5304;48.604;2.096;2024-03-02T07:12:42;4.70;;;1.50;;
10511;SDS011;5304;48.604;2.096;2024-03-02T07:15:28;7.33;;;1.77;;
10511;SDS011;5304;48.604;2.096;2024-03-02T07:18:32;3.97;;;1.40;;
10511;SDS011;5304;48.604;2.096;2024-03-02T07:21:24;3.53;;;1.33;;
10511;SDS011;5304;48.604;2.096;2024-03-02T07:24:08;4.90;;;1.50;;
10511;SDS011;5304;48.604;2.096;2024-03-02T07:26:56;9.90;;;1.70;;
10511;SDS011;5304;48.604;2.096;2024-03-02T07:29:41;6.33;;;1.93;;
10511;SDS011;5304;48.604;2.096;2024-03-02T07:32:25;4.20;;;1.47;;
10511;SDS011;5304;48.604;2.096;2024-03-02T07:35:09;5.67;;;2.33;;
10511;SDS011;5304;48.604;2.096;2024-03-02T07:37:54;6.17;;;1.67;;
10511;SDS011;5304;48.604;2.096;2024-03-02T07:40:39;5.47;;;1.63;;
10511;SDS011;5304;48.604;2.096;2024-03-02T07:43:24;3.77;;;1.17;;
10511;SDS011;5304;48.604;2.096;2024-03-02T07:46:08;6.30;;;1.57;;
10511;SDS011;5304;48.604;2.096;2024-03-02T07:48:52;3.87;;;1.53;;
10511;SDS011;5304;48.604;2.096;2024-03-02T07:51:38;2.97;;;1.20;;
10511;SDS011;5304;48.604;2.096;2024-03-02T07:54:22;7.73;;;1.53;;
10511;SDS011;5304;48.604;2.096;2024-03-02T07:57:06;6.07;;;1.40;;
10511;SDS011;5304;48.604;2.096;2024-03-02T07:59:50;4.47;;;1.13;;
10511;SDS011;5304;48.604;2.096;2024-03-02T08:02:34;6.43;;;2.10;;
10511;SDS011;5304;48.604;2.096;2024-03-02T08:05:18;8.47;;;2.37;;
10511;SDS011;5304;48.604;2.096;2024-03-02T08:08:04;4.13;;;1.70;;
10511;SDS011;5304;48.604;2.096;2024-03-02T08:10:48;6.57;;;1.60;;
10511;SDS011;5304;48.604;2.096;2024-03-02T08:13:33;8.07;;;1.27;;
10511;SDS011;5304;48.604;2.096;2024-03-02T08:16:17;4.57;;;1.20;;
10511;SDS011;5304;48.604;2.096;2024-03-02T08:19:05;6.27;;;1.47;;
10511;SDS011;5304;48.604;2.096;2024-03-02T08:21:49;8.30;;;1.40;;
10511;SDS011;5304;48.604;2.096;2024-03-02T08:24:33;2.40;;;1.27;;
10511;SDS011;5304;48.604;2.096;2024-03-02T08:27:17;7.17;;;0.93;;
10511;SDS011;5304;48.604;2.096;2024-03-02T08:30:02;6.90;;;1.30;;
10511;SDS011;5304;48.604;2.096;2024-03-02T08:32:50;6.70;;;1.50;;
10511;SDS011;5304;48.604;2.096;2024-03-02T08:35:35;5.77;;;1.43;;
10511;SDS011;5304;48.604;2.096;2024-03-02T08:38:20;7.57;;;1.73;;
10511;SDS011;5304;48.604;2.096;2024-03-02T08:41:04;1.93;;;0.70;;
10511;SDS011;5304;48.604;2.096;2024-03-02T08:43:48;6.37;;;1.30;;
10511;SDS011;5304;48.604;2.096;2024-03-02T08:46:32;6.33;;;1.43;;
10511;SDS011;5304;48.604;2.096;2024-03-02T08:49:17;6.40;;;1.33;;
10511;SDS011;5304;48.604;2.096;2024-03-02T08:52:01;4.33;;;1.43;;
10511;SDS011;5304;48.604;2.096;2024-03-02T08:54:45;4.00;;;1.00;;
10511;SDS011;5304;48.604;2.096;2024-03-02T08:57:30;5.10;;;1.40;;
10511;SDS011;5304;48.604;2.096;2024-03-02T09:00:15;4.30;;;1.23;;
10511;SDS011;5304;48.604;2.096;2024-03-02T09:03:00;3.77;;;1.07;;
10511;SDS011;5304;48.604;2.096;2024-03-02T09:05:44;6.27;;;1.20;;
10511;SDS011;5304;48.604;2.096;2024-03-02T09:08:29;6.90;;;1.50;;
10511;SDS011;5304;48.604;2.096;2024-03-02T09:11:13;5.20;;;1.20;;
10511;SDS011;5304;48.604;2.096;2024-03-02T09:13:57;7.60;;;1.37;;
10511;SDS011;5304;48.604;2.096;2024-03-02T09:16:42;3.67;;;1.20;;
10511;SDS011;5304;48.604;2.096;2024-03-02T09:19:26;4.30;;;0.93;;
10511;SDS011;5304;48.604;2.096;2024-03-02T09:22:13;5.20;;;1.10;;
10511;SDS011;5304;48.604;2.096;2024-03-02T09:24:56;3.43;;;0.83;;
10511;SDS011;5304;48.604;2.096;2024-03-02T09:27:41;7.90;;;1.93;;
10511;SDS011;5304;48.604;2.096;2024-03-02T09:30:25;6.93;;;0.93;;
10511;SDS011;5304;48.604;2.096;2024-03-02T09:33:09;3.47;;;1.10;;
10511;SDS011;5304;48.604;2.096;2024-03-02T09:35:53;4.03;;;1.60;;
10511;SDS011;5304;48.604;2.096;2024-03-02T09:38:38;3.10;;;1.20;;
10511;SDS011;5304;48.604;2.096;2024-03-02T09:41:22;6.27;;;1.70;;
10511;SDS011;5304;48.604;2.096;2024-03-02T09:44:07;4.73;;;1.60;;
10511;SDS011;5304;48.604;2.096;2024-03-02T09:46:52;5.80;;;1.10;;
10511;SDS011;5304;48.604;2.096;2024-03-02T09:49:36;5.93;;;1.27;;
10511;SDS011;5304;48.604;2.096;2024-03-02T09:52:20;3.10;;;1.47;;
10511;SDS011;5304;48.604;2.096;2024-03-02T09:55:06;5.37;;;1.40;;
10511;SDS011;5304;48.604;2.096;2024-03-02T09:57:50;6.40;;;1.60;;
10511;SDS011;5304;48.604;2.096;2024-03-02T10:00:35;5.27;;;1.80;;
10511;SDS011;5304;48.604;2.096;2024-03-02T10:03:19;5.37;;;1.40;;
10511;SDS011;5304;48.604;2.096;2024-03-02T10:06:18;4.97;;;1.57;;
10511;SDS011;5304;48.604;2.096;2024-03-02T10:09:02;5.27;;;1.63;;
10511;SDS011;5304;48.604;2.096;2024-03-02T10:11:47;4.87;;;1.60;;
10511;SDS011;5304;48.604;2.096;2024-03-02T10:14:32;6.67;;;2.00;;
10511;SDS011;5304;48.604;2.096;2024-03-02T10:17:17;5.40;;;1.17;;
10511;SDS011;5304;48.604;2.096;2024-03-02T10:20:20;2.97;;;1.23;;
10511;SDS011;5304;48.604;2.096;2024-03-02T10:23:13;3.77;;;1.17;;
10511;SDS011;5304;48.604;2.096;2024-03-02T10:25:58;3.50;;;1.27;;
10511;SDS011;5304;48.604;2.096;2024-03-02T10:28:46;5.17;;;1.40;;
10511;SDS011;5304;48.604;2.096;2024-03-02T10:31:31;3.87;;;1.30;;
10511;SDS011;5304;48.604;2.096;2024-03-02T10:34:16;4.03;;;1.17;;
10511;SDS011;5304;48.604;2.096;2024-03-02T10:37:01;1.43;;;1.07;;
10511;SDS011;5304;48.604;2.096;2024-03-02T10:39:46;1.47;;;1.00;;
10511;SDS011;5304;48.604;2.096;2024-03-02T10:42:31;3.43;;;1.00;;
10511;SDS011;5304;48.604;2.096;2024-03-02T10:45:16;1.10;;;0.90;;
10511;SDS011;5304;48.604;2.096;2024-03-02T10:48:01;1.70;;;0.67;;
10511;SDS011;5304;48.604;2.096;2024-03-02T10:50:46;3.10;;;1.50;;
10511;SDS011;5304;48.604;2.096;2024-03-02T10:53:30;2.27;;;1.03;;
10511;SDS011;5304;48.604;2.096;2024-03-02T10:56:16;1.03;;;0.90;;
10511;SDS011;5304;48.604;2.096;2024-03-02T11:02:04;0.93;;;0.60;;
10511;SDS011;5304;48.604;2.096;2024-03-02T11:04:50;1.07;;;0.80;;
10511;SDS011;5304;48.604;2.096;2024-03-02T11:07:38;1.13;;;0.80;;
10511;SDS011;5304;48.604;2.096;2024-03-02T11:10:24;0.63;;;0.50;;
10511;SDS011;5304;48.604;2.096;2024-03-02T11:13:09;1.27;;;0.80;;
10511;SDS011;5304;48.604;2.096;2024-03-02T11:15:55;0.90;;;0.70;;
10511;SDS011;5304;48.604;2.096;2024-03-02T11:18:43;1.37;;;1.07;;
10511;SDS011;5304;48.604;2.096;2024-03-02T11:21:28;2.03;;;1.83;;
10511;SDS011;5304;48.604;2.096;2024-03-02T11:33:16;1.10;;;1.00;;
10511;SDS011;5304;48.604;2.096;2024-03-02T11:36:08;1.40;;;0.77;;
10511;SDS011;5304;48.604;2.096;2024-03-02T11:38:53;1.90;;;1.00;;
10511;SDS011;5304;48.604;2.096;2024-03-02T11:41:37;6.43;;;2.40;;
10511;SDS011;5304;48.604;2.096;2024-03-02T11:44:21;3.60;;;1.50;;
10511;SDS011;5304;48.604;2.096;2024-03-02T11:47:06;4.20;;;2.40;;
10511;SDS011;5304;48.604;2.096;2024-03-02T11:49:51;2.70;;;1.70;;
10511;SDS011;5304;48.604;2.096;2024-03-02T11:52:37;5.70;;;3.27;;
10511;SDS011;5304;48.604;2.096;2024-03-02T11:55:24;2.93;;;1.77;;
10511;SDS011;5304;48.604;2.096;2024-03-02T11:58:12;1.07;;;0.80;;
10511;SDS011;5304;48.604;2.096;2024-03-02T12:00:57;0.73;;;0.73;;
10511;SDS011;5304;48.604;2.096;2024-03-02T12:03:41;0.90;;;0.90;;
10511;SDS011;5304;48.604;2.096;2024-03-02T12:06:26;1.00;;;0.80;;
10511;SDS011;5304;48.604;2.096;2024-03-02T12:09:11;1.70;;;0.87;;
10511;SDS011;5304;48.604;2.096;2024-03-02T12:12:03;0.63;;;0.63;;
10511;SDS011;5304;48.604;2.096;2024-03-02T12:14:52;0.70;;;0.70;;
10511;SDS011;5304;48.604;2.096;2024-03-02T12:17:39;1.80;;;1.37;;
10511;SDS011;5304;48.604;2.096;2024-03-02T12:20:24;2.47;;;1.23;;
10511;SDS011;5304;48.604;2.096;2024-03-02T12:23:09;0.67;;;0.60;;
10511;SDS011;5304;48.604;2.096;2024-03-02T12:25:53;3.03;;;1.83;;
10511;SDS011;5304;48.604;2.096;2024-03-02T12:28:38;0.70;;;0.70;;
10511;SDS011;5304;48.604;2.096;2024-03-02T12:31:22;3.17;;;1.67;;
10511;SDS011;5304;48.604;2.096;2024-03-02T12:34:07;1.43;;;0.70;;
10511;SDS011;5304;48.604;2.096;2024-03-02T12:36:52;1.50;;;1.17;;
10511;SDS011;5304;48.604;2.096;2024-03-02T12:39:36;0.87;;;0.80;;
10511;SDS011;5304;48.604;2.096;2024-03-02T12:42:20;1.37;;;1.27;;
10511;SDS011;5304;48.604;2.096;2024-03-02T12:45:05;1.27;;;0.93;;
10511;SDS011;5304;48.604;2.096;2024-03-02T12:47:50;1.03;;;0.80;;
10511;SDS011;5304;48.604;2.096;2024-03-02T12:50:37;0.93;;;0.80;;
10511;SDS011;5304;48.604;2.096;2024-03-02T12:53:21;1.27;;;1.10;;
10511;SDS011;5304;48.604;2.096;2024-03-02T12:56:07;2.63;;;1.30;;
10511;SDS011;5304;48.604;2.096;2024-03-02T12:58:55;2.50;;;0.80;;
10511;SDS011;5304;48.604;2.096;2024-03-02T13:01:49;1.10;;;0.80;;
10511;SDS011;5304;48.604;2.096;2024-03-02T13:04:37;1.37;;;1.27;;
10511;SDS011;5304;48.604;2.096;2024-03-02T13:07:23;0.80;;;0.80;;
10511;SDS011;5304;48.604;2.096;2024-03-02T13:10:08;1.40;;;1.30;;
10511;SDS011;5304;48.604;2.096;2024-03-02T13:12:52;0.90;;;0.70;;
10511;SDS011;5304;48.604;2.096;2024-03-02T13:15:36;1.30;;;0.80;;
10511;SDS011;5304;48.604;2.096;2024-03-02T13:18:22;0.90;;;0.73;;
10511;SDS011;5304;48.604;2.096;2024-03-02T13:21:07;1.03;;;0.90;;
10511;SDS011;5304;48.604;2.096;2024-03-02T13:23:52;1.10;;;1.07;;
10511;SDS011;5304;48.604;2.096;2024-03-02T13:26:36;1.33;;;1.23;;
10511;SDS011;5304;48.604;2.096;2024-03-02T13:29:21;1.20;;;1.10;;
10511;SDS011;5304;48.604;2.096;2024-03-02T13:32:05;1.20;;;1.10;;
10511;SDS011;5304;48.604;2.096;2024-03-02T13:34:49;1.20;;;1.10;;
10511;SDS011;5304;48.604;2.096;2024-03-02T13:37:34;3.90;;;1.50;;
10511;SDS011;5304;48.604;2.096;2024-03-02T13:40:19;0.83;;;0.83;;
10511;SDS011;5304;48.604;2.096;2024-03-02T13:43:04;2.30;;;1.00;;
10511;SDS011;5304;48.604;2.096;2024-03-02T13:45:48;0.93;;;0.70;;
10511;SDS011;5304;48.604;2.096;2024-03-02T13:48:33;0.80;;;0.80;;
10511;SDS011;5304;48.604;2.096;2024-03-02T13:51:17;0.67;;;0.67;;
10511;SDS011;5304;48.604;2.096;2024-03-02T13:54:01;0.90;;;0.90;;
10511;SDS011;5304;48.604;2.096;2024-03-02T13:56:47;1.43;;;0.90;;
10511;SDS011;5304;48.604;2.096;2024-03-02T13:59:31;1.97;;;1.23;;
10511;SDS011;5304;48.604;2.096;2024-03-02T14:02:16;3.87;;;1.80;;
10511;SDS011;5304;48.604;2.096;2024-03-02T14:05:01;1.10;;;1.00;;
10511;SDS011;5304;48.604;2.096;2024-03-02T14:07:45;2.90;;;2.20;;
10511;SDS011;5304;48.604;2.096;2024-03-02T14:10:29;0.60;;;0.60;;
10511;SDS011;5304;48.604;2.096;2024-03-02T14:13:14;0.90;;;0.90;;
10511;SDS011;5304;48.604;2.096;2024-03-02T14:15:59;0.70;;;0.70;;
10511;SDS011;5304;48.604;2.096;2024-03-02T14:18:43;0.50;;;0.50;;
10511;SDS011;5304;48.604;2.096;2024-03-02T14:21:28;1.97;;;0.67;;
10511;SDS011;5304;48.604;2.096;2024-03-02T14:24:14;0.80;;;0.80;;
10511;SDS011;5304;48.604;2.096;2024-03-02T14:26:58;2.93;;;1.60;;
10511;SDS011;5304;48.604;2.096;2024-03-02T14:29:45;1.80;;;0.90;;
10511;SDS011;5304;48.604;2.096;2024-03-02T14:32:30;5.83;;;1.97;;
10511;SDS011;5304;48.604;2.096;2024-03-02T14:35:14;7.43;;;4.10;;
10511;SDS011;5304;48.604;2.096;2024-03-02T14:37:58;5.70;;;2.90;;
10511;SDS011;5304;48.604;2.096;2024-03-02T14:40:43;2.27;;;1.83;;
10511;SDS011;5304;48.604;2.096;2024-03-02T14:43:27;3.03;;;1.90;;
10511;SDS011;5304;48.604;2.096;2024-03-02T14:46:12;0.97;;;0.90;;
10511;SDS011;5304;48.604;2.096;2024-03-02T14:48:56;1.20;;;1.10;;
10511;SDS011;5304;48.604;2.096;2024-03-02T14:51:41;0.93;;;0.80;;
10511;SDS011;5304;48.604;2.096;2024-03-02T14:54:27;1.40;;;1.30;;
10511;SDS011;5304;48.604;2.096;2024-03-02T14:57:11;1.77;;;1.40;;
10511;SDS011;5304;48.604;2.096;2024-03-02T14:59:55;2.27;;;1.73;;
10511;SDS011;5304;48.604;2.096;2024-03-02T15:02:40;1.93;;;1.73;;
10511;SDS011;5304;48.604;2.096;2024-03-02T15:05:24;2.80;;;2.40;;
10511;SDS011;5304;48.604;2.096;2024-03-02T15:08:10;3.13;;;2.87;;
10511;SDS011;5304;48.604;2.096;2024-03-02T15:10:54;2.37;;;2.17;;
10511;SDS011;5304;48.604;2.096;2024-03-02T15:13:39;3.27;;;1.60;;
10511;SDS011;5304;48.604;2.096;2024-03-02T15:16:24;3.13;;;1.80;;
10511;SDS011;5304;48.604;2.096;2024-03-02T15:19:08;1.17;;;1.10;;
10511;SDS011;5304;48.604;2.096;2024-03-02T15:21:52;2.50;;;1.50;;
10511;SDS011;5304;48.604;2.096;2024-03-02T15:24:37;1.67;;;1.50;;
10511;SDS011;5304;48.604;2.096;2024-03-02T15:27:21;1.57;;;1.30;;
10511;SDS011;5304;48.604;2.096;2024-03-02T15:30:06;7.40;;;1.87;;
10511;SDS011;5304;48.604;2.096;2024-03-02T15:32:51;6.73;;;4.23;;
10511;SDS011;5304;48.604;2.096;2024-03-02T15:35:35;6.57;;;4.57;;
10511;SDS011;5304;48.604;2.096;2024-03-02T15:38:19;4.63;;;3.37;;
10511;SDS011;5304;48.604;2.096;2024-03-02T15:41:04;1.77;;;1.30;;
10511;SDS011;5304;48.604;2.096;2024-03-02T15:43:48;1.70;;;1.07;;
10511;SDS011;5304;48.604;2.096;2024-03-02T15:46:33;1.13;;;0.83;;
10511;SDS011;5304;48.604;2.096;2024-03-02T15:49:17;1.43;;;1.07;;
10511;SDS011;5304;48.604;2.096;2024-03-02T15:52:02;1.40;;;1.30;;
10511;SDS011;5304;48.604;2.096;2024-03-02T15:54:47;0.87;;;0.80;;
10511;SDS011;5304;48.604;2.096;2024-03-02T15:57:33;1.13;;;1.00;;
10511;SDS011;5304;48.604;2.096;2024-03-02T16:00:18;1.13;;;0.90;;
10511;SDS011;5304;48.604;2.096;2024-03-02T16:03:03;1.37;;;0.83;;
10511;SDS011;5304;48.604;2.096;2024-03-02T16:05:47;1.97;;;1.27;;
10511;SDS011;5304;48.604;2.096;2024-03-02T16:08:32;1.37;;;1.00;;
10511;SDS011;5304;48.604;2.096;2024-03-02T16:11:16;1.43;;;0.80;;
10511;SDS011;5304;48.604;2.096;2024-03-02T16:14:00;0.97;;;0.87;;
10511;SDS011;5304;48.604;2.096;2024-03-02T16:16:45;1.20;;;0.90;;
10511;SDS011;5304;48.604;2.096;2024-03-02T16:19:29;0.93;;;0.50;;
10511;SDS011;5304;48.604;2.096;2024-03-02T16:22:13;2.03;;;0.83;;
10511;SDS011;5304;48.604;2.096;2024-03-02T16:24:57;1.47;;;0.77;;
10511;SDS011;5304;48.604;2.096;2024-03-02T16:27:42;0.83;;;0.73;;
10511;SDS011;5304;48.604;2.096;2024-03-02T16:30:26;2.20;;;1.10;;
10511;SDS011;5304;48.604;2.096;2024-03-02T16:33:10;1.50;;;0.90;;
10511;SDS011;5304;48.604;2.096;2024-03-02T16:35:54;1.83;;;0.97;;
10511;SDS011;5304;48.604;2.096;2024-03-02T16:38:39;1.47;;;1.23;;
10511;SDS011;5304;48.604;2.096;2024-03-02T16:41:24;3.43;;;1.30;;
10511;SDS011;5304;48.604;2.096;2024-03-02T16:44:13;1.80;;;1.43;;
10511;SDS011;5304;48.604;2.096;2024-03-02T16:46:57;1.37;;;1.27;;
10511;SDS011;5304;48.604;2.096;2024-03-02T16:49:45;2.87;;;1.07;;
10511;SDS011;5304;48.604;2.096;2024-03-02T16:52:29;1.50;;;1.00;;
10511;SDS011;5304;48.604;2.096;2024-03-02T16:55:13;2.53;;;1.13;;
10511;SDS011;5304;48.604;2.096;2024-03-02T16:57:58;2.23;;;1.50;;
10511;SDS011;5304;48.604;2.096;2024-03-02T17:00:42;2.10;;;1.47;;
10511;SDS011;5304;48.604;2.096;2024-03-02T17:03:28;3.73;;;1.23;;
10511;SDS011;5304;48.604;2.096;2024-03-02T17:06:14;1.67;;;1.40;;
10511;SDS011;5304;48.604;2.096;2024-03-02T17:08:58;2.40;;;1.60;;
10511;SDS011;5304;48.604;2.096;2024-03-02T17:11:43;3.03;;;2.03;;
10511;SDS011;5304;48.604;2.096;2024-03-02T17:14:27;6.03;;;3.00;;
10511;SDS011;5304;48.604;2.096;2024-03-02T17:17:11;6.03;;;1.87;;
10511;SDS011;5304;48.604;2.096;2024-03-02T17:19:56;1.80;;;1.33;;
10511;SDS011;5304;48.604;2.096;2024-03-02T17:22:41;3.00;;;1.40;;
10511;SDS011;5304;48.604;2.096;2024-03-02T17:25:25;5.03;;;2.10;;
10511;SDS011;5304;48.604;2.096;2024-03-02T17:28:25;4.73;;;2.10;;
10511;SDS011;5304;48.604;2.096;2024-03-02T17:31:10;9.60;;;3.97;;
10511;SDS011;5304;48.604;2.096;2024-03-02T17:33:54;15.33;;;7.47;;
10511;SDS011;5304;48.604;2.096;2024-03-02T17:36:38;7.57;;;3.57;;
10511;SDS011;5304;48.604;2.096;2024-03-02T17:39:23;4.33;;;2.70;;
10511;SDS011;5304;48.604;2.096;2024-03-02T17:42:07;3.43;;;2.17;;
10511;SDS011;5304;48.604;2.096;2024-03-02T17:44:51;7.33;;;3.77;;
10511;SDS011;5304;48.604;2.096;2024-03-02T17:47:35;10.07;;;4.37;;
10511;SDS011;5304;48.604;2.096;2024-03-02T17:50:19;6.07;;;3.60;;
10511;SDS011;5304;48.604;2.096;2024-03-02T17:53:04;6.30;;;2.87;;
10511;SDS011;5304;48.604;2.096;2024-03-02T17:55:49;6.40;;;3.33;;
10511;SDS011;5304;48.604;2.096;2024-03-02T17:58:33;5.10;;;2.87;;
10511;SDS011;5304;48.604;2.096;2024-03-02T18:01:17;13.37;;;6.23;;
10511;SDS011;5304;48.604;2.096;2024-03-02T18:04:02;5.13;;;3.40;;
10511;SDS011;5304;48.604;2.096;2024-03-02T18:06:46;1.93;;;1.50;;
10511;SDS011;5304;48.604;2.096;2024-03-02T18:09:31;2.80;;;1.70;;
10511;SDS011;5304;48.604;2.096;2024-03-02T18:12:16;9.40;;;4.60;;
10511;SDS011;5304;48.604;2.096;2024-03-02T18:15:00;4.87;;;2.00;;
10511;SDS011;5304;48.604;2.096;2024-03-02T18:17:45;1.77;;;1.30;;
10511;SDS011;5304;48.604;2.096;2024-03-02T18:20:30;3.23;;;2.13;;
10511;SDS011;5304;48.604;2.096;2024-03-02T18:23:14;11.83;;;4.10;;
10511;SDS011;5304;48.604;2.096;2024-03-02T18:25:58;3.53;;;1.97;;
10511;SDS011;5304;48.604;2.096;2024-03-02T18:28:42;3.67;;;1.87;;
10511;SDS011;5304;48.604;2.096;2024-03-02T18:31:26;4.20;;;1.87;;
10511;SDS011;5304;48.604;2.096;2024-03-02T18:34:11;4.43;;;2.03;;
10511;SDS011;5304;48.604;2.096;2024-03-02T18:36:55;5.00;;;2.73;;
10511;SDS011;5304;48.604;2.096;2024-03-02T18:39:40;2.93;;;2.10;;
10511;SDS011;5304;48.604;2.096;2024-03-02T18:42:24;2.90;;;2.40;;
10511;SDS011;5304;48.604;2.096;2024-03-02T18:45:09;3.00;;;2.43;;
10511;SDS011;5304;48.604;2.096;2024-03-02T18:47:54;5.40;;;3.17;;
10511;SDS011;5304;48.604;2.096;2024-03-02T18:50:38;5.63;;;3.57;;
10511;SDS011;5304;48.604;2.096;2024-03-02T18:53:23;5.40;;;3.40;;
10511;SDS011;5304;48.604;2.096;2024-03-02T18:56:07;6.60;;;3.87;;
10511;SDS011;5304;48.604;2.096;2024-03-02T18:58:52;6.93;;;4.90;;
10511;SDS011;5304;48.604;2.096;2024-03-02T19:01:36;10.70;;;7.87;;
10511;SDS011;5304;48.604;2.096;2024-03-02T19:04:20;7.47;;;6.33;;
10511;SDS011;5304;48.604;2.096;2024-03-02T19:07:04;8.77;;;5.80;;
10511;SDS011;5304;48.604;2.096;2024-03-02T19:09:48;6.60;;;5.03;;
10511;SDS011;5304;48.604;2.096;2024-03-02T19:12:33;6.63;;;4.23;;
10511;SDS011;5304;48.604;2.096;2024-03-02T19:15:17;5.90;;;4.90;;
10511;SDS011;5304;48.604;2.096;2024-03-02T19:18:01;8.77;;;6.53;;
10511;SDS011;5304;48.604;2.096;2024-03-02T19:20:46;7.87;;;6.00;;
10511;SDS011;5304;48.604;2.096;2024-03-02T19:23:31;7.80;;;5.40;;
10511;SDS011;5304;48.604;2.096;2024-03-02T19:26:15;4.90;;;4.37;;
10511;SDS011;5304;48.604;2.096;2024-03-02T19:29:01;5.07;;;3.33;;
10511;SDS011;5304;48.604;2.096;2024-03-02T19:31:46;4.30;;;2.43;;
10511;SDS011;5304;48.604;2.096;2024-03-02T19:34:30;3.90;;;2.70;;
10511;SDS011;5304;48.604;2.096;2024-03-02T19:37:14;4.80;;;3.57;;
10511;SDS011;5304;48.604;2.096;2024-03-02T19:39:58;5.13;;;3.97;;
10511;SDS011;5304;48.604;2.096;2024-03-02T19:42:42;5.37;;;4.53;;
10511;SDS011;5304;48.604;2.096;2024-03-02T19:45:28;6.60;;;4.80;;
10511;SDS011;5304;48.604;2.096;2024-03-02T19:48:14;5.97;;;4.43;;
10511;SDS011;5304;48.604;2.096;2024-03-02T19:51:00;7.60;;;4.93;;
10511;SDS011;5304;48.604;2.096;2024-03-02T19:53:45;5.87;;;4.80;;
10511;SDS011;5304;48.604;2.096;2024-03-02T19:56:29;6.03;;;5.03;;
10511;SDS011;5304;48.604;2.096;2024-03-02T19:59:13;6.50;;;4.60;;
10511;SDS011;5304;48.604;2.096;2024-03-02T20:01:58;6.67;;;4.37;;
10511;SDS011;5304;48.604;2.096;2024-03-02T20:04:42;5.43;;;4.30;;
10511;SDS011;5304;48.604;2.096;2024-03-02T20:07:27;5.00;;;3.77;;
10511;SDS011;5304;48.604;2.096;2024-03-02T20:10:12;6.50;;;5.50;;
10511;SDS011;5304;48.604;2.096;2024-03-02T20:12:57;7.90;;;6.77;;
10511;SDS011;5304;48.604;2.096;2024-03-02T20:15:41;8.10;;;6.33;;
10511;SDS011;5304;48.604;2.096;2024-03-02T20:18:25;9.63;;;6.53;;
10511;SDS011;5304;48.604;2.096;2024-03-02T20:21:09;12.83;;;8.97;;
10511;SDS011;5304;48.604;2.096;2024-03-02T20:23:54;16.57;;;9.53;;
10511;SDS011;5304;48.604;2.096;2024-03-02T20:26:38;15.47;;;10.90;;
10511;SDS011;5304;48.604;2.096;2024-03-02T20:29:23;12.37;;;9.00;;
10511;SDS011;5304;48.604;2.096;2024-03-02T20:32:08;15.07;;;9.23;;
10511;SDS011;5304;48.604;2.096;2024-03-02T20:34:52;8.97;;;6.60;;
10511;SDS011;5304;48.604;2.096;2024-03-02T20:37:36;11.73;;;7.57;;
10511;SDS011;5304;48.604;2.096;2024-03-02T20:40:21;9.93;;;7.87;;
10511;SDS011;5304;48.604;2.096;2024-03-02T20:43:05;10.80;;;8.40;;
10511;SDS011;5304;48.604;2.096;2024-03-02T20:45:49;8.10;;;7.10;;
10511;SDS011;5304;48.604;2.096;2024-03-02T20:48:34;7.63;;;5.23;;
10511;SDS011;5304;48.604;2.096;2024-03-02T20:51:18;6.73;;;5.47;;
10511;SDS011;5304;48.604;2.096;2024-03-02T20:54:02;7.40;;;5.73;;
10511;SDS011;5304;48.604;2.096;2024-03-02T20:56:48;6.43;;;5.10;;
10511;SDS011;5304;48.604;2.096;2024-03-02T20:59:35;7.87;;;5.10;;
10511;SDS011;5304;48.604;2.096;2024-03-02T21:02:19;6.17;;;5.00;;
10511;SDS011;5304;48.604;2.096;2024-03-02T21:05:04;6.83;;;5.00;;
10511;SDS011;5304;48.604;2.096;2024-03-02T21:07:49;6.37;;;4.63;;
10511;SDS011;5304;48.604;2.096;2024-03-02T21:10:33;5.87;;;4.97;;
10511;SDS011;5304;48.604;2.096;2024-03-02T21:13:18;8.73;;;4.97;;
10511;SDS011;5304;48.604;2.096;2024-03-02T21:16:02;7.80;;;4.90;;
10511;SDS011;5304;48.604;2.096;2024-03-02T21:18:47;6.30;;;5.70;;
10511;SDS011;5304;48.604;2.096;2024-03-02T21:21:32;6.13;;;5.20;;
